KJHW

Chautauqua County / Jamestown Airport

Jamestown, New York, USA
KJHW 210252Z 2103/2124 31005KT P6SM FEW250 FM210400 VRB03KT P6SM FEW250 FM211400 29004KT P6SM SCT200 FM212000 33007KT P6SM FEW150 AMD LTD TO CLD VIS AND WIND
Issued Valid From Valid To
Apr-21 @ 02:52 UTC
(59 minutes ago)
Apr-21 @ 03:00 UTC
(51 minutes ago)
Apr-22 @ 00:00 UTC
(in 20 hours)
Apr-21 @ 03:00 to Apr-21 @ 04:00
KJHW 210252Z 2103/2124 31005KT P6SM FEW250
Wind Visibility Clouds
310° at 5 knots Greater than 6 miles
  • Few at 25,000' AGL
From Apr-21 @ 04:00 to Apr-21 @ 14:00
FM210400 VRB03KT P6SM FEW250
Wind Visibility Clouds
Variable at 3 knots Greater than 6 miles
  • Few at 25,000' AGL
From Apr-21 @ 14:00 to Apr-21 @ 20:00
FM211400 29004KT P6SM SCT200
Wind Visibility Clouds
290° at 4 knots Greater than 6 miles
  • Scattered at 20,000' AGL
From Apr-21 @ 20:00 to Apr-22 @ 00:00
FM212000 33007KT P6SM FEW150 AMD LTD TO CLD VIS AND WIND
Wind Visibility Clouds
330° at 7 knots Greater than 6 miles
  • Few at 15,000' AGL
KJHW 210252Z 2103/2124 31005KT P6SM FEW250 FM210400 VRB03KT P6SM FEW250 FM211400 29004KT P6SM SCT200 FM212000 33007KT P6SM FEW150 AMD LTD TO CLD VIS AND WIND
Issued Apr-21 @ 02:52 UTC
(59 minutes ago)
Valid From Apr-21 @ 03:00 UTC
(51 minutes ago)
Valid To Apr-22 @ 00:00 UTC
(in 20 hours)
Apr-21 @ 03:00 - Apr-21 @ 04:00
Wind Visibility
310° at 5 knots Greater than 6 miles
Clouds
  • Few at 25,000' AGL
From Apr-21 @ 04:00 - Apr-21 @ 14:00
Wind Visibility
Variable at 3 knots Greater than 6 miles
Clouds
  • Few at 25,000' AGL
From Apr-21 @ 14:00 - Apr-21 @ 20:00
Wind Visibility
290° at 4 knots Greater than 6 miles
Clouds
  • Scattered at 20,000' AGL
From Apr-21 @ 20:00 - Apr-22 @ 00:00
Wind Visibility
330° at 7 knots Greater than 6 miles
Clouds
  • Few at 15,000' AGL